createdAt,value
2022-10-25T00:01:02.326Z,13.94
2022-10-25T00:02:06.758Z,13.93
2022-10-25T00:03:10.898Z,13.92
2022-10-25T00:04:15.339Z,13.91
2022-10-25T00:06:47.031Z,13.90
2022-10-25T00:07:51.460Z,13.90
2022-10-25T00:08:55.745Z,13.91
2022-10-25T00:10:00.068Z,13.90
2022-10-25T00:11:04.320Z,13.90
2022-10-25T00:12:08.682Z,13.89
2022-10-25T00:13:12.855Z,13.89
2022-10-25T00:14:17.269Z,13.87
2022-10-25T00:15:21.553Z,13.87
2022-10-25T00:16:25.879Z,13.86
2022-10-25T00:17:30.253Z,13.85
2022-10-25T00:18:34.493Z,13.84
2022-10-25T00:19:38.858Z,13.83
2022-10-25T00:20:43.190Z,13.82
2022-10-25T00:21:47.440Z,13.82
2022-10-25T00:22:51.811Z,13.82
2022-10-25T00:23:56.070Z,13.81
2022-10-25T00:25:00.437Z,13.81
2022-10-25T00:26:04.737Z,13.80
2022-10-25T00:27:09.038Z,13.79
2022-10-25T00:28:13.413Z,13.78
2022-10-25T00:29:17.724Z,13.77
2022-10-25T00:30:21.982Z,13.77
2022-10-25T00:31:26.303Z,13.76
2022-10-25T00:32:30.640Z,13.76
2022-10-25T00:33:35.012Z,13.76
2022-10-25T00:34:39.378Z,13.76
2022-10-25T00:35:43.703Z,13.76
2022-10-25T00:36:47.994Z,13.75
2022-10-25T00:37:52.335Z,13.75
2022-10-25T00:38:56.541Z,13.75
2022-10-25T00:40:00.839Z,13.75
2022-10-25T00:41:05.185Z,13.75
2022-10-25T00:42:09.443Z,13.75
2022-10-25T00:43:13.798Z,13.75
2022-10-25T00:44:18.236Z,13.76
2022-10-25T00:45:22.499Z,13.77
2022-10-25T00:46:26.742Z,13.78
2022-10-25T00:47:31.061Z,13.78
2022-10-25T00:48:35.460Z,13.79
2022-10-25T00:49:39.753Z,13.79
2022-10-25T00:50:44.092Z,13.78
2022-10-25T00:51:48.369Z,13.77
2022-10-25T00:52:52.760Z,13.77
2022-10-25T00:53:57.033Z,13.76
2022-10-25T00:55:01.342Z,13.75
2022-10-25T00:56:05.712Z,13.74
2022-10-25T00:57:09.968Z,13.74
2022-10-25T00:58:14.290Z,13.73
2022-10-25T00:59:18.624Z,13.72
2022-10-25T01:00:22.860Z,13.70
2022-10-25T01:01:27.317Z,13.68
2022-10-25T01:02:31.603Z,13.67
2022-10-25T01:03:35.822Z,13.66
2022-10-25T01:04:46.118Z,13.65
2022-10-25T01:05:49.100Z,13.65
2022-10-25T01:06:53.413Z,13.64
2022-10-25T01:07:57.752Z,13.64
2022-10-25T01:09:02.085Z,13.63
2022-10-25T01:10:06.406Z,13.62
2022-10-25T01:11:10.739Z,13.62
2022-10-25T01:12:15.021Z,13.61
2022-10-25T01:13:19.289Z,13.60
2022-10-25T01:14:23.698Z,13.60
2022-10-25T01:15:27.935Z,13.59
2022-10-25T01:16:32.303Z,13.59
2022-10-25T01:17:36.622Z,13.58
2022-10-25T01:18:41.075Z,13.57
2022-10-25T01:19:45.266Z,13.56
2022-10-25T01:20:49.602Z,13.55
2022-10-25T01:21:53.927Z,13.55
2022-10-25T01:22:58.269Z,13.54
2022-10-25T01:24:02.597Z,13.53
2022-10-25T01:25:06.904Z,13.52
2022-10-25T01:26:11.170Z,13.51
2022-10-25T01:27:15.517Z,13.50
2022-10-25T01:28:19.894Z,13.49
2022-10-25T01:29:24.229Z,13.49
2022-10-25T01:30:28.568Z,13.49
2022-10-25T01:31:32.933Z,13.47
2022-10-25T01:32:37.274Z,13.47
2022-10-25T01:33:41.497Z,13.46
2022-10-25T01:34:45.874Z,13.45
2022-10-25T01:35:50.014Z,13.45
2022-10-25T01:36:54.420Z,13.45
2022-10-25T01:37:58.748Z,13.44
2022-10-25T01:39:03.084Z,13.44
2022-10-25T01:40:07.543Z,13.44
2022-10-25T01:41:11.735Z,13.43
2022-10-25T01:42:16.110Z,13.43
2022-10-25T01:43:20.417Z,13.43
2022-10-25T01:44:24.867Z,13.42
2022-10-25T01:45:29.063Z,13.41
2022-10-25T01:46:33.398Z,13.40
2022-10-25T01:47:37.736Z,13.39
2022-10-25T01:48:42.049Z,13.38
2022-10-25T01:49:46.363Z,13.37
2022-10-25T01:50:50.706Z,13.36
2022-10-25T01:51:55.006Z,13.37
2022-10-25T01:52:59.259Z,13.37
2022-10-25T01:54:03.645Z,13.37
2022-10-25T01:55:07.881Z,13.37
2022-10-25T01:56:12.154Z,13.37
2022-10-25T01:57:16.545Z,13.37
2022-10-25T01:58:20.963Z,13.37
2022-10-25T01:59:25.195Z,13.37
2022-10-25T02:00:29.702Z,13.37
2022-10-25T02:01:34.100Z,13.38
2022-10-25T02:02:38.231Z,13.38
2022-10-25T02:03:42.572Z,13.38
2022-10-25T02:04:46.752Z,13.38
2022-10-25T02:05:51.143Z,13.37
2022-10-25T02:06:55.408Z,13.37
2022-10-25T02:07:59.654Z,13.36
2022-10-25T02:09:04.058Z,13.36
2022-10-25T02:10:08.220Z,13.35
2022-10-25T02:11:12.632Z,13.34
2022-10-25T02:12:16.963Z,13.33
2022-10-25T02:13:21.295Z,13.33
2022-10-25T02:14:25.740Z,13.32
2022-10-25T02:15:29.923Z,13.31
2022-10-25T02:16:34.268Z,13.30
2022-10-25T02:17:38.478Z,13.29
2022-10-25T02:18:42.821Z,13.28
2022-10-25T02:19:47.277Z,13.26
2022-10-25T02:20:51.549Z,13.25
2022-10-25T02:21:55.778Z,13.24
2022-10-25T02:23:00.112Z,13.23
2022-10-25T02:24:04.459Z,13.22
2022-10-25T02:25:08.832Z,13.21
2022-10-25T02:26:13.044Z,13.20
2022-10-25T02:27:17.420Z,13.19
2022-10-25T02:28:21.670Z,13.18
2022-10-25T02:29:26.150Z,13.17
2022-10-25T02:30:30.443Z,13.16
2022-10-25T02:31:34.780Z,13.15
2022-10-25T02:32:39.023Z,13.14
2022-10-25T02:33:43.408Z,13.13
2022-10-25T02:34:47.726Z,13.12
2022-10-25T02:35:51.934Z,13.12
2022-10-25T02:36:56.342Z,13.11
2022-10-25T02:38:00.603Z,13.10
2022-10-25T02:39:04.997Z,13.09
2022-10-25T02:40:09.202Z,13.08
2022-10-25T02:41:13.504Z,13.07
2022-10-25T02:42:17.870Z,13.05
2022-10-25T02:43:22.238Z,13.04
2022-10-25T02:44:26.503Z,13.03
2022-10-25T02:45:30.817Z,13.02
2022-10-25T02:46:35.155Z,13.01
2022-10-25T02:47:39.448Z,13.00
2022-10-25T02:48:43.899Z,12.98
2022-10-25T02:49:51.139Z,12.97
2022-10-25T02:50:54.560Z,12.97
2022-10-25T02:51:58.851Z,12.96
2022-10-25T02:53:03.251Z,12.96
2022-10-25T02:54:07.515Z,12.96
2022-10-25T02:55:11.797Z,12.96
2022-10-25T02:56:16.194Z,12.95
2022-10-25T02:57:20.477Z,12.96
2022-10-25T02:58:24.719Z,12.96
2022-10-25T02:59:29.010Z,12.97
2022-10-25T03:00:33.458Z,12.97
2022-10-25T03:01:37.650Z,12.97
2022-10-25T03:02:41.948Z,12.97
2022-10-25T03:03:46.408Z,12.97
2022-10-25T03:04:50.805Z,12.97
2022-10-25T03:05:55.090Z,12.98
2022-10-25T03:06:59.366Z,12.97
2022-10-25T03:08:03.741Z,12.96
2022-10-25T03:09:08.090Z,12.96
2022-10-25T03:10:12.461Z,12.95
2022-10-25T03:11:16.747Z,12.95
2022-10-25T03:12:21.098Z,12.94
2022-10-25T03:13:25.403Z,12.94
2022-10-25T03:14:29.684Z,12.93
2022-10-25T03:15:34.019Z,12.93
2022-10-25T03:16:38.212Z,12.93
2022-10-25T03:17:42.570Z,12.92
2022-10-25T03:18:46.883Z,12.92
2022-10-25T03:19:51.088Z,12.91
2022-10-25T03:20:55.438Z,12.91
2022-10-25T03:21:59.674Z,12.90
2022-10-25T03:23:04.032Z,12.90
2022-10-25T03:24:08.361Z,12.90
2022-10-25T03:25:12.704Z,12.89
2022-10-25T03:26:16.998Z,12.89
2022-10-25T03:27:21.141Z,12.88
2022-10-25T03:28:25.565Z,12.88
2022-10-25T03:29:30.002Z,12.88
2022-10-25T03:30:34.176Z,12.87
2022-10-25T03:31:38.523Z,12.86
2022-10-25T03:32:42.908Z,12.86
2022-10-25T03:33:47.231Z,12.85
2022-10-25T03:34:51.372Z,12.84
2022-10-25T03:35:55.812Z,12.84
2022-10-25T03:37:00.041Z,12.84
2022-10-25T03:38:04.381Z,12.84
2022-10-25T03:39:08.690Z,12.83
2022-10-25T03:40:13.014Z,12.83
2022-10-25T03:41:17.204Z,12.82
2022-10-25T03:42:21.611Z,12.82
2022-10-25T03:43:25.930Z,12.81
2022-10-25T03:44:30.351Z,12.81
2022-10-25T03:45:34.527Z,12.82
2022-10-25T03:46:38.869Z,12.82
2022-10-25T03:47:43.264Z,12.82
2022-10-25T03:48:47.481Z,12.83
2022-10-25T03:49:51.795Z,12.83
2022-10-25T03:50:56.141Z,12.83
2022-10-25T03:52:02.790Z,12.83
2022-10-25T03:53:04.876Z,12.83
2022-10-25T03:54:09.130Z,12.83
2022-10-25T03:55:13.437Z,12.83
2022-10-25T03:56:17.699Z,12.83
2022-10-25T03:57:22.162Z,12.83
2022-10-25T03:58:26.450Z,12.83
2022-10-25T03:59:30.641Z,12.84
2022-10-25T04:00:35.028Z,12.84
2022-10-25T04:01:39.407Z,12.85
2022-10-25T04:02:43.579Z,12.85
2022-10-25T04:03:47.931Z,12.86
2022-10-25T04:04:52.255Z,12.86
2022-10-25T04:05:56.495Z,12.87
2022-10-25T04:07:00.960Z,12.88
2022-10-25T04:08:05.219Z,12.89
2022-10-25T04:09:09.468Z,12.90
2022-10-25T04:10:13.811Z,12.91
2022-10-25T04:11:18.072Z,12.92
2022-10-25T04:12:22.470Z,12.94
2022-10-25T04:13:26.691Z,12.94
2022-10-25T04:14:31.018Z,12.96
2022-10-25T04:15:35.352Z,12.96
2022-10-25T04:16:39.663Z,12.97
2022-10-25T04:17:44.283Z,12.99
2022-10-25T04:18:48.320Z,12.99
2022-10-25T04:19:52.560Z,13.00
2022-10-25T04:20:56.923Z,13.01
2022-10-25T04:22:01.202Z,13.02
2022-10-25T04:23:05.587Z,13.03
2022-10-25T04:24:09.820Z,13.03
2022-10-25T04:25:14.187Z,13.04
2022-10-25T04:26:18.330Z,13.04
2022-10-25T04:27:22.643Z,13.05
2022-10-25T04:28:26.986Z,13.05
2022-10-25T04:29:31.295Z,13.06
2022-10-25T04:30:38.808Z,13.06
2022-10-25T04:31:39.831Z,13.07
2022-10-25T04:32:44.339Z,13.08
2022-10-25T04:33:49.014Z,13.09
2022-10-25T04:34:52.778Z,13.09
2022-10-25T04:35:57.246Z,13.10
2022-10-25T04:37:01.662Z,13.11
2022-10-25T04:38:05.922Z,13.11
2022-10-25T04:39:10.219Z,13.12
2022-10-25T04:40:14.360Z,13.13
2022-10-25T04:41:18.774Z,13.13
2022-10-25T04:42:23.104Z,13.14
2022-10-25T04:43:27.413Z,13.14
2022-10-25T04:44:31.677Z,13.15
2022-10-25T04:45:36.152Z,13.15
2022-10-25T04:46:42.930Z,13.16
2022-10-25T04:47:44.706Z,13.17
2022-10-25T04:48:49.031Z,13.18
2022-10-25T04:49:53.472Z,13.18
2022-10-25T04:50:57.717Z,13.19
2022-10-25T04:52:02.099Z,13.19
2022-10-25T04:53:06.517Z,13.20
2022-10-25T04:54:10.779Z,13.20
2022-10-25T04:55:15.031Z,13.21
2022-10-25T04:56:19.344Z,13.21
2022-10-25T04:57:23.675Z,13.22
2022-10-25T04:58:31.243Z,13.23
2022-10-25T04:59:32.285Z,13.24
2022-10-25T05:00:36.475Z,13.24
2022-10-25T05:01:40.983Z,13.26
2022-10-25T05:02:45.542Z,13.27
2022-10-25T05:03:49.393Z,13.28
2022-10-25T05:04:53.673Z,13.29
2022-10-25T05:05:58.049Z,13.30
2022-10-25T05:07:02.317Z,13.31
2022-10-25T05:08:06.521Z,13.32
2022-10-25T05:09:10.958Z,13.33
2022-10-25T05:10:15.304Z,13.34
2022-10-25T05:11:19.623Z,13.35
2022-10-25T05:12:23.843Z,13.35
2022-10-25T05:13:28.157Z,13.37
2022-10-25T05:14:32.547Z,13.37
2022-10-25T05:15:36.693Z,13.38
2022-10-25T05:16:41.074Z,13.39
2022-10-25T05:17:45.414Z,13.40
2022-10-25T05:18:49.836Z,13.41
2022-10-25T05:19:54.074Z,13.42
2022-10-25T05:20:58.318Z,13.43
2022-10-25T05:22:02.623Z,13.44
2022-10-25T05:23:06.891Z,13.44
2022-10-25T05:24:11.248Z,13.45
2022-10-25T05:25:15.559Z,13.46
2022-10-25T05:26:19.907Z,13.47
2022-10-25T05:27:24.215Z,13.47
2022-10-25T05:28:28.524Z,13.49
2022-10-25T05:29:32.867Z,13.48
2022-10-25T05:30:37.080Z,13.49
2022-10-25T05:31:41.458Z,13.49
2022-10-25T05:32:46.141Z,13.49
2022-10-25T05:33:50.020Z,13.49
2022-10-25T05:34:54.402Z,13.49
2022-10-25T05:35:58.706Z,13.49
2022-10-25T05:37:03.038Z,13.49
2022-10-25T05:38:07.374Z,13.49
2022-10-25T05:39:11.718Z,13.50
2022-10-25T05:40:15.998Z,13.50
2022-10-25T05:41:20.242Z,13.50
2022-10-25T05:42:24.518Z,13.50
2022-10-25T05:43:28.897Z,13.50
2022-10-25T05:44:33.230Z,13.49
2022-10-25T05:45:37.566Z,13.47
2022-10-25T05:46:41.757Z,13.46
2022-10-25T05:47:46.118Z,13.45
2022-10-25T05:48:50.446Z,13.44
2022-10-25T05:49:54.788Z,13.42
2022-10-25T05:51:08.405Z,13.41
2022-10-25T05:52:03.387Z,13.39
2022-10-25T05:53:07.691Z,13.38
2022-10-25T05:54:11.977Z,13.38
2022-10-25T05:55:16.248Z,13.38
2022-10-25T05:56:20.622Z,13.38
2022-10-25T05:57:24.926Z,13.38
2022-10-25T05:58:29.145Z,13.37
2022-10-25T05:59:33.499Z,13.37
2022-10-25T06:01:42.278Z,13.37
2022-10-25T06:02:46.777Z,13.38
2022-10-25T06:03:50.810Z,13.38
2022-10-25T06:04:55.042Z,13.38
2022-10-25T06:05:59.438Z,13.38
2022-10-25T06:07:03.775Z,13.38
2022-10-25T06:08:08.166Z,13.37
2022-10-25T06:09:12.419Z,13.38
2022-10-25T06:10:16.678Z,13.37
2022-10-25T06:11:21.082Z,13.37
2022-10-25T06:12:25.356Z,13.37
2022-10-25T06:13:29.690Z,13.37
2022-10-25T06:14:34.011Z,13.38
2022-10-25T06:15:38.363Z,13.38
2022-10-25T06:16:42.660Z,13.39
2022-10-25T06:17:46.988Z,13.40
2022-10-25T06:18:51.297Z,13.42
2022-10-25T06:19:55.615Z,13.42
2022-10-25T06:20:59.855Z,13.42
2022-10-25T06:22:04.401Z,13.42
2022-10-25T06:23:10.535Z,13.42
2022-10-25T06:24:12.902Z,13.43
2022-10-25T06:25:17.262Z,13.43
2022-10-25T06:26:21.607Z,13.43
2022-10-25T06:27:25.938Z,13.43
2022-10-25T06:28:30.261Z,13.43
2022-10-25T06:29:34.507Z,13.42
2022-10-25T06:30:38.873Z,13.43
2022-10-25T06:31:43.216Z,13.42
2022-10-25T06:32:47.807Z,13.42
2022-10-25T06:33:51.686Z,13.41
2022-10-25T06:34:56.043Z,13.40
2022-10-25T06:36:00.331Z,13.39
2022-10-25T06:37:04.680Z,13.38
2022-10-25T06:38:08.989Z,13.38
2022-10-25T06:39:13.276Z,13.37
2022-10-25T06:40:17.566Z,13.37
2022-10-25T06:41:21.842Z,13.36
2022-10-25T06:42:26.202Z,13.35
2022-10-25T06:43:30.459Z,13.35
2022-10-25T06:44:34.810Z,13.34
2022-10-25T06:45:39.140Z,13.34
2022-10-25T06:47:15.293Z,13.33
2022-10-25T06:47:47.755Z,13.33
2022-10-25T06:48:52.029Z,13.33
2022-10-25T06:49:56.507Z,13.33
2022-10-25T06:51:00.710Z,13.33
2022-10-25T06:52:05.065Z,13.33
2022-10-25T06:53:09.317Z,13.33
2022-10-25T06:54:16.683Z,13.34
2022-10-25T06:55:20.112Z,13.34
2022-10-25T06:56:24.351Z,13.35
2022-10-25T06:57:28.619Z,13.35
2022-10-25T06:58:33.022Z,13.36
2022-10-25T06:59:37.337Z,13.36
2022-10-25T07:00:43.732Z,13.37
2022-10-25T07:01:46.088Z,13.37
2022-10-25T07:02:50.322Z,13.38
2022-10-25T07:03:54.635Z,13.38
2022-10-25T07:04:58.972Z,13.39
2022-10-25T07:06:03.120Z,13.39
2022-10-25T07:07:07.473Z,13.40
2022-10-25T07:08:11.848Z,13.41
2022-10-25T07:09:16.016Z,13.42
2022-10-25T07:10:20.442Z,13.43
2022-10-25T07:11:24.664Z,13.44
2022-10-25T07:12:28.960Z,13.45
2022-10-25T07:13:33.250Z,13.46
2022-10-25T07:14:37.591Z,13.47
2022-10-25T07:15:42.257Z,13.47
2022-10-25T07:16:46.246Z,13.48
2022-10-25T07:17:50.694Z,13.49
2022-10-25T07:18:54.976Z,13.50
2022-10-25T07:19:59.278Z,13.51
2022-10-25T07:21:03.697Z,13.52
2022-10-25T07:22:07.889Z,13.53
2022-10-25T07:23:12.184Z,13.54
2022-10-25T07:24:16.597Z,13.56
2022-10-25T07:25:20.768Z,13.59
2022-10-25T07:26:25.199Z,13.61
2022-10-25T07:27:29.484Z,13.63
2022-10-25T07:28:33.839Z,13.66
2022-10-25T07:29:38.149Z,13.68
2022-10-25T07:30:42.394Z,13.71
2022-10-25T07:31:46.678Z,13.73
2022-10-25T07:32:50.969Z,13.76
2022-10-25T07:33:55.346Z,13.79
2022-10-25T07:34:59.709Z,13.82
2022-10-25T07:36:11.203Z,13.85
2022-10-25T07:37:08.377Z,13.88
2022-10-25T07:38:12.652Z,13.89
2022-10-25T07:39:17.013Z,13.91
2022-10-25T07:40:21.266Z,13.91
2022-10-25T07:41:25.631Z,13.91
2022-10-25T07:42:29.902Z,13.91
2022-10-25T07:43:34.235Z,13.91
2022-10-25T07:44:38.594Z,13.91
2022-10-25T07:45:42.887Z,13.91
2022-10-25T07:46:47.221Z,13.91
2022-10-25T07:47:51.565Z,13.91
2022-10-25T07:48:55.826Z,13.91
2022-10-25T07:50:00.184Z,13.91
2022-10-25T07:51:04.415Z,13.91
2022-10-25T07:52:08.754Z,13.92
2022-10-25T07:53:13.086Z,13.92
2022-10-25T07:54:17.381Z,13.93
2022-10-25T07:55:21.787Z,13.94
2022-10-25T07:56:26.197Z,13.95
2022-10-25T07:57:30.412Z,13.96
2022-10-25T07:58:34.751Z,13.97
2022-10-25T07:59:39.039Z,13.98
2022-10-25T08:00:43.394Z,13.99
2022-10-25T08:01:47.823Z,14.00
2022-10-25T08:02:52.099Z,14.02
2022-10-25T08:03:56.293Z,14.03
2022-10-25T08:05:00.666Z,14.04
2022-10-25T08:06:04.984Z,14.06
2022-10-25T08:07:09.268Z,14.07
2022-10-25T08:08:13.633Z,14.08
2022-10-25T08:09:36.800Z,14.09
2022-10-25T08:10:22.384Z,14.10
2022-10-25T08:11:26.717Z,14.12
2022-10-25T08:12:31.071Z,14.14
2022-10-25T08:13:35.397Z,14.16
2022-10-25T08:14:41.533Z,14.19
2022-10-25T08:15:43.930Z,14.23
2022-10-25T08:16:48.267Z,14.28
2022-10-25T08:17:52.570Z,14.32
2022-10-25T08:18:56.854Z,14.38
2022-10-25T08:20:01.187Z,14.43
2022-10-25T08:21:05.610Z,14.47
2022-10-25T08:22:09.826Z,14.51
2022-10-25T08:23:14.189Z,14.55
2022-10-25T08:25:26.146Z,14.61
2022-10-25T08:26:27.219Z,14.63
2022-10-25T08:27:31.473Z,14.65
2022-10-25T08:28:35.768Z,14.68
2022-10-25T08:29:40.145Z,14.70
2022-10-25T08:30:44.507Z,14.72
2022-10-25T08:31:48.781Z,14.74
2022-10-25T08:32:53.047Z,14.76
2022-10-25T08:33:57.489Z,14.78
2022-10-25T08:35:01.783Z,14.80
2022-10-25T08:36:06.099Z,14.82
2022-10-25T08:37:10.345Z,14.83
2022-10-25T08:38:14.645Z,14.85
2022-10-25T08:39:19.030Z,14.87
2022-10-25T08:40:23.362Z,14.88
2022-10-25T08:41:27.595Z,14.88
2022-10-25T08:42:31.885Z,14.88
2022-10-25T08:43:36.345Z,14.89
2022-10-25T08:44:40.618Z,14.89
2022-10-25T08:45:47.123Z,14.89
2022-10-25T08:46:49.269Z,14.89
2022-10-25T08:47:53.497Z,14.89
2022-10-25T08:48:57.775Z,14.90
2022-10-25T08:50:02.111Z,14.90
2022-10-25T08:51:06.423Z,14.91
2022-10-25T08:52:14.011Z,14.92
2022-10-25T08:53:15.073Z,14.91
2022-10-25T08:54:19.433Z,14.91
2022-10-25T08:55:23.727Z,14.90
2022-10-25T08:56:28.073Z,14.91
2022-10-25T08:57:32.428Z,14.92
2022-10-25T08:58:36.750Z,14.92
2022-10-25T08:59:41.099Z,14.94
2022-10-25T09:00:45.372Z,14.94
2022-10-25T09:01:49.907Z,14.96
2022-10-25T09:02:54.120Z,14.97
2022-10-25T09:03:58.441Z,14.99
2022-10-25T09:05:02.796Z,15.01
2022-10-25T09:06:07.164Z,15.03
2022-10-25T09:07:11.629Z,15.05
2022-10-25T09:08:15.831Z,15.07
2022-10-25T09:09:20.140Z,15.09
2022-10-25T09:10:24.449Z,15.10
2022-10-25T09:11:28.831Z,15.11
2022-10-25T09:12:33.149Z,15.12
2022-10-25T09:13:37.634Z,15.13
2022-10-25T09:14:41.782Z,15.14
2022-10-25T09:15:46.159Z,15.14
2022-10-25T09:16:50.421Z,15.15
2022-10-25T09:17:54.697Z,15.16
2022-10-25T09:18:59.021Z,15.17
2022-10-25T09:20:03.380Z,15.18
2022-10-25T09:21:23.024Z,15.19
2022-10-25T09:22:25.101Z,15.20
2022-10-25T09:23:29.333Z,15.22
2022-10-25T09:24:33.640Z,15.23
2022-10-25T09:25:38.025Z,15.23
2022-10-25T09:26:42.374Z,15.24
2022-10-25T09:27:46.973Z,15.23
2022-10-25T09:28:50.999Z,15.22
2022-10-25T09:29:55.309Z,15.20
2022-10-25T09:30:59.660Z,15.19
2022-10-25T09:32:04.005Z,15.17
2022-10-25T09:33:08.507Z,15.15
2022-10-25T09:34:12.692Z,15.12
2022-10-25T09:35:17.034Z,15.11
2022-10-25T09:36:21.421Z,15.09
2022-10-25T09:37:25.745Z,15.07
2022-10-25T09:38:30.099Z,15.04
2022-10-25T09:39:34.333Z,15.02
2022-10-25T09:40:45.006Z,15.00
2022-10-25T09:41:42.978Z,14.99
2022-10-25T09:42:47.373Z,14.98
2022-10-25T09:43:51.700Z,14.98
2022-10-25T09:44:55.958Z,14.98
2022-10-25T09:46:00.362Z,14.99
2022-10-25T09:47:04.678Z,14.99
2022-10-25T09:48:09.015Z,14.99
2022-10-25T09:49:13.336Z,14.99
2022-10-25T09:50:17.726Z,14.99
2022-10-25T09:51:22.049Z,14.98
2022-10-25T09:52:26.315Z,14.98
2022-10-25T09:53:30.657Z,14.99
2022-10-25T09:54:34.976Z,14.99
2022-10-25T09:55:39.221Z,15.00
2022-10-25T09:56:43.591Z,15.01
2022-10-25T09:57:48.165Z,15.01
2022-10-25T09:58:52.253Z,15.02
2022-10-25T09:59:56.569Z,15.03
2022-10-25T10:01:01.132Z,15.05
2022-10-25T10:02:05.372Z,15.07
2022-10-25T10:03:09.575Z,15.08
2022-10-25T10:04:13.923Z,15.10
2022-10-25T10:05:18.272Z,15.11
2022-10-25T10:06:22.641Z,15.13
2022-10-25T10:07:26.973Z,15.14
2022-10-25T10:08:31.255Z,15.15
2022-10-25T10:09:35.609Z,15.15
2022-10-25T10:10:39.938Z,15.16
2022-10-25T10:11:44.295Z,15.16
2022-10-25T10:12:48.760Z,15.16
2022-10-25T10:13:52.917Z,15.16
2022-10-25T10:14:57.313Z,15.17
2022-10-25T10:16:01.647Z,15.18
2022-10-25T10:17:05.970Z,15.19
2022-10-25T10:18:10.425Z,15.20
2022-10-25T10:19:14.836Z,15.21
2022-10-25T10:20:19.130Z,15.22
2022-10-25T10:21:23.391Z,15.22
2022-10-25T10:22:27.820Z,15.23
2022-10-25T10:23:32.150Z,15.23
2022-10-25T10:24:36.526Z,15.24
2022-10-25T10:25:40.863Z,15.24
2022-10-25T10:26:45.222Z,15.24
2022-10-25T10:27:49.818Z,15.25
2022-10-25T10:28:54.001Z,15.26
2022-10-25T10:29:58.411Z,15.27
2022-10-25T10:31:02.717Z,15.28
2022-10-25T10:32:07.000Z,15.28
2022-10-25T10:33:11.284Z,15.29
2022-10-25T10:34:15.586Z,15.31
2022-10-25T10:35:19.889Z,15.32
2022-10-25T10:36:24.219Z,15.33
2022-10-25T10:37:28.529Z,15.34
2022-10-25T10:38:32.916Z,15.35
2022-10-25T10:39:37.215Z,15.36
2022-10-25T10:40:41.597Z,15.37
2022-10-25T10:41:45.861Z,15.39
2022-10-25T10:42:50.386Z,15.40
2022-10-25T10:43:54.558Z,15.42
2022-10-25T10:44:58.835Z,15.43
2022-10-25T10:46:03.118Z,15.45
2022-10-25T10:47:07.422Z,15.46
2022-10-25T10:48:11.916Z,15.48
2022-10-25T10:49:16.155Z,15.49
2022-10-25T10:50:20.575Z,15.50
2022-10-25T10:51:43.143Z,15.51
2022-10-25T10:52:29.214Z,15.51
2022-10-25T10:53:33.564Z,15.51
2022-10-25T10:54:37.865Z,15.52
2022-10-25T10:55:42.181Z,15.53
2022-10-25T10:56:46.471Z,15.54
2022-10-25T10:57:50.774Z,15.55
2022-10-25T10:58:55.157Z,15.55
2022-10-25T10:59:59.494Z,15.55
2022-10-25T11:01:03.980Z,15.54
2022-10-25T11:02:08.467Z,15.53
2022-10-25T11:03:12.484Z,15.51
2022-10-25T11:04:16.891Z,15.49
2022-10-25T11:05:21.368Z,15.48
2022-10-25T11:06:25.661Z,15.47
2022-10-25T11:07:30.097Z,15.46
2022-10-25T11:08:34.493Z,15.46
2022-10-25T11:09:38.914Z,15.47
2022-10-25T11:10:43.203Z,15.48
2022-10-25T11:11:47.542Z,15.50
2022-10-25T11:12:51.890Z,15.52
2022-10-25T11:13:56.332Z,15.54
2022-10-25T11:15:00.657Z,15.56
2022-10-25T11:16:04.969Z,15.57
2022-10-25T11:17:09.340Z,15.58
2022-10-25T11:18:13.665Z,15.61
2022-10-25T11:19:18.046Z,15.63
2022-10-25T11:20:22.440Z,15.66
2022-10-25T11:21:26.809Z,15.68
2022-10-25T11:22:33.002Z,15.71
2022-10-25T11:23:35.520Z,15.73
2022-10-25T11:24:39.868Z,15.75
2022-10-25T11:25:44.219Z,15.77
2022-10-25T11:26:48.716Z,15.79
2022-10-25T11:27:52.849Z,15.82
2022-10-25T11:28:57.128Z,15.83
2022-10-25T11:30:01.614Z,15.85
2022-10-25T11:31:05.835Z,15.88
2022-10-25T11:32:10.215Z,15.90
2022-10-25T11:33:14.478Z,15.93
2022-10-25T11:34:18.962Z,15.94
2022-10-25T11:35:23.265Z,15.96
2022-10-25T11:36:27.654Z,15.96
2022-10-25T11:37:32.127Z,15.96
2022-10-25T11:38:36.348Z,15.93
2022-10-25T11:39:43.665Z,15.92
2022-10-25T11:40:45.004Z,15.92
2022-10-25T11:41:49.342Z,15.92
2022-10-25T11:42:53.921Z,15.93
2022-10-25T11:44:12.093Z,15.96
2022-10-25T11:45:15.355Z,15.98
2022-10-25T11:46:19.606Z,16.01
2022-10-25T11:47:23.983Z,16.04
2022-10-25T11:48:28.383Z,16.08
2022-10-25T11:49:32.726Z,16.10
2022-10-25T11:50:36.980Z,16.12
2022-10-25T11:51:41.248Z,16.14
2022-10-25T11:52:45.991Z,16.14
2022-10-25T11:53:49.901Z,16.15
2022-10-25T11:54:54.278Z,16.14
2022-10-25T11:55:58.664Z,16.14
2022-10-25T11:57:02.989Z,16.15
2022-10-25T11:58:08.111Z,16.17
2022-10-25T11:59:11.734Z,16.19
2022-10-25T12:00:16.278Z,16.21
2022-10-25T12:01:20.507Z,16.21
2022-10-25T12:02:24.876Z,16.21
2022-10-25T12:03:29.178Z,16.20
2022-10-25T12:04:34.775Z,16.19
2022-10-25T12:05:37.907Z,16.18
2022-10-25T12:06:42.271Z,16.17
2022-10-25T12:07:46.637Z,16.17
2022-10-25T12:08:51.035Z,16.17
2022-10-25T12:09:55.396Z,16.17
2022-10-25T12:10:59.801Z,16.18
2022-10-25T12:12:04.022Z,16.18
2022-10-25T12:13:08.424Z,16.18
2022-10-25T12:14:18.975Z,16.19
2022-10-25T12:15:21.684Z,16.19
2022-10-25T12:16:26.048Z,16.20
2022-10-25T12:17:30.307Z,16.21
2022-10-25T12:18:34.810Z,16.21
2022-10-25T12:19:39.130Z,16.21
2022-10-25T12:20:43.468Z,16.22
2022-10-25T12:21:47.827Z,16.25
2022-10-25T12:22:52.214Z,16.29
2022-10-25T12:23:56.481Z,16.32
2022-10-25T12:25:00.818Z,16.32
2022-10-25T12:26:05.333Z,16.32
2022-10-25T12:27:09.554Z,16.32
2022-10-25T12:28:13.874Z,16.33
2022-10-25T12:29:18.184Z,16.34
2022-10-25T12:30:22.657Z,16.34
2022-10-25T12:31:26.808Z,16.34
2022-10-25T12:32:31.243Z,16.35
2022-10-25T12:33:35.619Z,16.38
2022-10-25T12:34:39.963Z,16.40
2022-10-25T12:35:44.398Z,16.41
2022-10-25T12:36:48.698Z,16.41
2022-10-25T12:37:56.448Z,16.42
2022-10-25T12:38:57.296Z,16.40
2022-10-25T12:40:04.696Z,16.39
2022-10-25T12:41:08.181Z,16.44
2022-10-25T12:42:12.613Z,16.50
2022-10-25T12:43:16.932Z,16.55
2022-10-25T12:44:21.373Z,16.63
2022-10-25T12:45:25.812Z,16.70
2022-10-25T12:46:30.049Z,16.74
2022-10-25T12:47:34.447Z,16.75
2022-10-25T12:48:38.805Z,16.75
2022-10-25T12:49:43.107Z,16.72
2022-10-25T12:50:47.624Z,16.73
2022-10-25T12:51:52.030Z,16.76
2022-10-25T12:52:56.354Z,16.81
2022-10-25T12:54:00.648Z,16.85
2022-10-25T12:55:05.100Z,16.93
2022-10-25T12:56:09.465Z,17.02
2022-10-25T12:57:13.927Z,17.08
2022-10-25T12:58:18.362Z,17.14
2022-10-25T12:59:22.689Z,17.17
2022-10-25T13:00:27.063Z,17.17
2022-10-25T13:01:31.593Z,17.15
2022-10-25T13:02:35.785Z,17.13
2022-10-25T13:03:40.102Z,17.15
2022-10-25T13:04:44.498Z,17.19
2022-10-25T13:05:48.975Z,17.27
2022-10-25T13:06:53.222Z,17.32
2022-10-25T13:07:57.604Z,17.39
2022-10-25T13:09:16.066Z,17.46
2022-10-25T13:10:19.575Z,17.55
2022-10-25T13:11:23.715Z,17.60
2022-10-25T13:12:28.023Z,17.67
2022-10-25T13:13:32.435Z,17.70
2022-10-25T13:14:36.731Z,17.75
2022-10-25T13:15:41.159Z,17.79
2022-10-25T13:16:45.606Z,17.83
2022-10-25T13:17:49.852Z,17.85
2022-10-25T13:18:54.183Z,17.84
2022-10-25T13:19:58.613Z,17.92
2022-10-25T13:21:02.966Z,17.95
2022-10-25T13:22:07.334Z,17.89
2022-10-25T13:23:11.718Z,17.77
2022-10-25T13:24:16.029Z,17.77
2022-10-25T13:25:20.448Z,17.84
2022-10-25T13:26:24.733Z,17.74
2022-10-25T13:27:29.081Z,17.59
2022-10-25T13:28:36.174Z,17.47
2022-10-25T13:29:43.906Z,17.42
2022-10-25T13:30:46.890Z,17.34
2022-10-25T13:31:51.486Z,17.20
2022-10-25T13:32:55.586Z,17.23
2022-10-25T13:34:00.094Z,17.30
2022-10-25T13:35:04.418Z,17.30
2022-10-25T13:36:08.764Z,17.27
2022-10-25T13:37:13.242Z,17.24
2022-10-25T13:38:17.577Z,17.20
2022-10-25T13:39:22.074Z,17.16
2022-10-25T13:40:26.403Z,17.12
2022-10-25T13:41:30.767Z,17.10
2022-10-25T13:42:35.118Z,17.08
2022-10-25T13:43:39.506Z,17.04
2022-10-25T13:44:43.763Z,16.99
2022-10-25T13:45:48.151Z,16.98
2022-10-25T13:46:52.400Z,16.99
2022-10-25T13:47:56.929Z,17.01
2022-10-25T13:49:01.175Z,17.03
2022-10-25T13:50:05.591Z,17.04
2022-10-25T13:51:09.889Z,17.02
2022-10-25T13:52:14.326Z,17.00
2022-10-25T13:53:18.620Z,16.98